Time;durP1;ratioP1;P1;durP2;ratioP2;P2;SDS_P1;SDS_P2;PMS_P1;PMS_P2;Temp;Humidity;BMP_temperature;BMP_pressure;BME280_temperature;BME280_humidity;BME280_pressure;Samples;Min_cycle;Max_cycle;Signal;HPM_P1;HPM_P2
2023/07/19 00:00:28;;;;;;;;;;;;;;;;;;1883645;28;7070;-64
2023/07/19 00:01:26;;;;;;;;;;;;;;;;;;1883287;28;7014;-63
2023/07/19 00:02:24;;;;;;;;;;;;;;;;;;1887926;28;7132;-63
2023/07/19 00:03:22;;;;;;;;;;;;;;;;;;1890902;28;7096;-62
2023/07/19 00:04:19;;;;;;;;;;;;;;;;;;1886156;28;7014;-62
2023/07/19 00:05:17;;;;;;;;;;;;;;;;;;1890143;28;7009;-62
2023/07/19 00:06:14;;;;;;;;;;;;;;;;;;1885585;28;7009;-62
2023/07/19 00:07:12;;;;;;;;;;;;;;;;;;1883134;28;7032;-62
2023/07/19 00:08:09;;;;;;;;;;;;;;;;;;1887587;28;7013;-63
2023/07/19 00:09:07;;;;;;;;;;;;;;;;;;1883070;28;7006;-63
2023/07/19 00:10:04;;;;;;;;;;;;;;;;;;1883291;28;7093;-63
2023/07/19 00:11:02;;;;;;;;;;;;;;;;;;1887410;28;8048;-63
2023/07/19 00:11:59;;;;;;;;;;;;;;;;;;1886343;28;7022;-63
2023/07/19 00:12:57;;;;;;;;;;;;;;;;;;1895489;28;7172;-63
2023/07/19 00:13:54;;;;;;;;;;;;;;;;;;1897126;28;7097;-63
2023/07/19 00:14:52;;;;;;;;;;;;;;;;;;1891228;28;8084;-62
2023/07/19 00:15:49;;;;;;;;;;;;;;;;;;1890302;28;7005;-62
2023/07/19 00:16:47;;;;;;;;;;;;;;;;;;1890058;28;7993;-63
2023/07/19 00:17:44;;;;;;;;;;;;;;;;;;1890382;28;8103;-63
2023/07/19 00:18:42;;;;;;;;;;;;;;;;;;1889840;28;7321;-64
2023/07/19 00:19:39;;;;;;;;;;;;;;;;;;1890730;28;7138;-62
2023/07/19 00:20:37;;;;;;;;;;;;;;;;;;1884045;28;7006;-63
2023/07/19 00:21:34;;;;;;;;;;;;;;;;;;1882845;28;7120;-64
2023/07/19 00:22:32;;;;;;;;;;;;;;;;;;1886280;28;8044;-63
2023/07/19 00:23:29;;;;;;;;;;;;;;;;;;1890093;28;8532;-63
2023/07/19 00:24:27;;;;;;;;;;;;;;;;;;1889564;28;8029;-64
2023/07/19 00:25:24;;;;;;;;;;;;;;;;;;1890434;28;8002;-63
2023/07/19 00:26:22;;;;;;;;;;;;;;;;;;1884545;28;8993;-63
2023/07/19 00:27:19;;;;;;;;;;;;;;;;;;1884503;28;8046;-63
2023/07/19 00:28:16;;;;;;;;;;;;;;;;;;1896559;28;8576;-63
2023/07/19 00:29:14;;;;;;;;;;;;;;;;;;1896819;28;7096;-63
2023/07/19 00:30:12;;;;;;;;;;;;;;;;;;1890722;28;8023;-63
2023/07/19 00:31:09;;;;;;;;;;;;;;;;;;1890537;28;7308;-63
2023/07/19 00:32:06;;;;;;;;;;;;;;;;;;1887819;28;7009;-63
2023/07/19 00:33:04;;;;;;;;;;;;;;;;;;1890210;28;7046;-63
2023/07/19 00:34:01;;;;;;;;;;;;;;;;;;1887967;28;7133;-63
2023/07/19 00:34:59;;;;;;;;;;;;;;;;;;1883313;28;8867;-63
2023/07/19 00:35:56;;;;;;;;;;;;;;;;;;1883044;28;7324;-63
2023/07/19 00:36:54;;;;;;;;;;;;;;;;;;1887980;28;7089;-63
2023/07/19 00:37:51;;;;;;;;;;;;;;;;;;1890472;28;7139;-64
2023/07/19 00:38:50;;;;;;;;;;;;;;;;;;1886923;28;8003;-63
2023/07/19 00:39:48;;;;;;;;;;;;;;;;;;1888215;28;8253;-63
2023/07/19 00:40:46;;;;;;;;;;;;;;;;;;1886638;28;8196;-64
2023/07/19 00:41:43;;;;;;;;;;;;;;;;;;1890437;28;8014;-63
2023/07/19 00:42:40;;;;;;;;;;;;;;;;;;1886332;28;7126;-63
2023/07/19 00:43:38;;;;;;;;;;;;;;;;;;1888162;28;7002;-63
2023/07/19 00:44:35;;;;;;;;;;;;;;;;;;1882626;28;7151;-63
2023/07/19 00:45:33;;;;;;;;;;;;;;;;;;1882922;28;7046;-63
2023/07/19 00:46:30;;;;;;;;;;;;;;;;;;1882907;28;8072;-63
2023/07/19 00:47:28;;;;;;;;;;;;;;;;;;1883449;28;7120;-64
2023/07/19 00:48:26;;;;;;;;;;;;;;;;;;1883315;28;7089;-62
2023/07/19 00:49:23;;;;;;;;;;;;;;;;;;1882978;28;7010;-63
2023/07/19 00:50:21;;;;;;;;;;;;;;;;;;1883127;28;7112;-64
2023/07/19 00:51:19;;;;;;;;;;;;;;;;;;1890287;28;7077;-63
2023/07/19 00:52:17;;;;;;;;;;;;;;;;;;1888177;28;8005;-63
2023/07/19 00:53:14;;;;;;;;;;;;;;;;;;1888365;28;7170;-63
2023/07/19 00:54:13;;;;;;;;;;;;;;;;;;1885214;28;7127;-63
2023/07/19 00:55:11;;;;;;;;;;;;;;;;;;1882687;28;7010;-63
2023/07/19 00:56:09;;;;;;;;;;;;;;;;;;1884145;28;7064;-63
2023/07/19 00:57:07;;;;;;;;;;;;;;;;;;1882785;28;7006;-63
2023/07/19 00:58:05;;;;;;;;;;;;;;;;;;1882985;28;7034;-63
2023/07/19 00:59:04;;;;;;;;;;;;;;;;;;1887275;28;7152;-63
2023/07/19 01:00:01;;;;;;;;;;;;;;;;;;1885238;28;7301;-63
2023/07/19 01:01:01;;;;;;;;;;;;;;;;;;1883185;28;8046;-63
2023/07/19 01:01:59;;;;;;;;;;;;;;;;;;1882486;28;7050;-63
2023/07/19 01:02:57;;;;;;;;;;;;;;;;;;1882598;28;7014;-63
2023/07/19 01:03:55;;;;;;;;;;;;;;;;;;1882669;28;7046;-63
2023/07/19 01:04:52;;;;;;;;;;;;;;;;;;1884695;28;7013;-63
2023/07/19 01:05:50;;;;;;;;;;;;;;;;;;1889592;28;7100;-63
2023/07/19 01:06:49;;;;;;;;;;;;;;;;;;1889555;28;8090;-63
2023/07/19 01:07:46;;;;;;;;;;;;;;;;;;1886230;28;7084;-63
2023/07/19 01:08:44;;;;;;;;;;;;;;;;;;1885575;28;7173;-63
2023/07/19 01:09:41;;;;;;;;;;;;;;;;;;1886084;28;7025;-64
2023/07/19 01:10:38;;;;;;;;;;;;;;;;;;1890693;28;7493;-63
2023/07/19 01:11:36;;;;;;;;;;;;;;;;;;1889724;28;7025;-63
2023/07/19 01:12:33;;;;;;;;;;;;;;;;;;1890470;28;7285;-63
2023/07/19 01:13:31;;;;;;;;;;;;;;;;;;1882942;28;7014;-63
2023/07/19 01:14:29;;;;;;;;;;;;;;;;;;1881715;28;7038;-63
2023/07/19 01:15:26;;;;;;;;;;;;;;;;;;1882606;28;7010;-63
2023/07/19 01:16:23;;;;;;;;;;;;;;;;;;1882379;28;8038;-64
2023/07/19 01:17:21;;;;;;;;;;;;;;;;;;1882619;28;7214;-63
2023/07/19 01:18:19;;;;;;;;;;;;;;;;;;1882667;28;7009;-64
2023/07/19 01:19:16;;;;;;;;;;;;;;;;;;1882333;28;7010;-63
2023/07/19 01:20:13;;;;;;;;;;;;;;;;;;1882489;28;7130;-63
2023/07/19 01:21:11;;;;;;;;;;;;;;;;;;1882991;28;8024;-63
2023/07/19 01:22:21;;;;;;;;;;;;;;;;;;1884717;28;8516;-63
2023/07/19 01:23:18;;;;;;;;;;;;;;;;;;1883580;28;7038;-64
2023/07/19 01:24:16;;;;;;;;;;;;;;;;;;1889509;28;7093;-63
2023/07/19 01:25:13;;;;;;;;;;;;;;;;;;1890115;28;7134;-63
2023/07/19 01:26:11;;;;;;;;;;;;;;;;;;1889790;28;7009;-63
2023/07/19 01:27:08;;;;;;;;;;;;;;;;;;1890198;28;7005;-63
2023/07/19 01:28:19;;;;;;;;;;;;;;;;;;1890235;28;7009;-63
2023/07/19 01:29:16;;;;;;;;;;;;;;;;;;1889595;28;7021;-63
2023/07/19 01:30:13;;;;;;;;;;;;;;;;;;1883912;28;8068;-64
2023/07/19 01:31:14;;;;;;;;;;;;;;;;;;1884214;28;7192;-63
2023/07/19 01:32:12;;;;;;;;;;;;;;;;;;1890727;28;7369;-63
2023/07/19 01:33:09;;;;;;;;;;;;;;;;;;1890108;28;8364;-63
2023/07/19 01:34:26;;;;;;;;;;;;;;;;;;1883312;28;7009;-63
2023/07/19 01:35:24;;;;;;;;;;;;;;;;;;1882454;28;7088;-63
2023/07/19 01:36:22;;;;;;;;;;;;;;;;;;1883723;28;7002;-63
2023/07/19 01:37:20;;;;;;;;;;;;;;;;;;1882712;28;7009;-63
2023/07/19 01:38:17;;;;;;;;;;;;;;;;;;1889181;28;7097;-64
2023/07/19 01:39:15;;;;;;;;;;;;;;;;;;1889545;28;7096;-63
2023/07/19 01:40:12;;;;;;;;;;;;;;;;;;1884803;28;7010;-64
2023/07/19 01:41:09;;;;;;;;;;;;;;;;;;1882611;28;7092;-63
2023/07/19 01:42:07;;;;;;;;;;;;;;;;;;1883133;28;7089;-63
2023/07/19 01:43:05;;;;;;;;;;;;;;;;;;1882231;28;7127;-63
2023/07/19 01:44:02;;;;;;;;;;;;;;;;;;1887230;28;7053;-63
2023/07/19 01:45:01;;;;;;;;;;;;;;;;;;1881597;28;7045;-63
2023/07/19 01:45:59;;;;;;;;;;;;;;;;;;1882588;28;7010;-63
2023/07/19 01:46:56;;;;;;;;;;;;;;;;;;1883223;28;7076;-64
2023/07/19 01:47:54;;;;;;;;;;;;;;;;;;1890432;28;9014;-62
2023/07/19 01:48:51;;;;;;;;;;;;;;;;;;1888537;28;7312;-63
2023/07/19 01:49:49;;;;;;;;;;;;;;;;;;1882277;28;8042;-63
2023/07/19 01:50:47;;;;;;;;;;;;;;;;;;1882456;28;7152;-63
2023/07/19 01:51:44;;;;;;;;;;;;;;;;;;1882269;28;7006;-62
2023/07/19 01:52:42;;;;;;;;;;;;;;;;;;1882265;28;7005;-63
2023/07/19 01:53:39;;;;;;;;;;;;;;;;;;1882179;28;8018;-62
2023/07/19 01:54:36;;;;;;;;;;;;;;;;;;1882808;28;7038;-63
2023/07/19 01:55:34;;;;;;;;;;;;;;;;;;1884106;28;8024;-63
2023/07/19 01:56:31;;;;;;;;;;;;;;;;;;1887655;28;7013;-63
2023/07/19 01:57:29;;;;;;;;;;;;;;;;;;1887131;28;7104;-63
2023/07/19 01:58:26;;;;;;;;;;;;;;;;;;1883076;28;7140;-63
2023/07/19 01:59:23;;;;;;;;;;;;;;;;;;1882539;28;7014;-63
2023/07/19 02:00:21;;;;;;;;;;;;;;;;;;1884210;28;7009;-63
2023/07/19 02:01:18;;;;;;;;;;;;;;;;;;1881318;28;7010;-63
2023/07/19 02:02:16;;;;;;;;;;;;;;;;;;1881757;28;7120;-63
2023/07/19 02:03:14;;;;;;;;;;;;;;;;;;1881832;28;7309;-64
2023/07/19 02:04:11;;;;;;;;;;;;;;;;;;1882306;28;7029;-63
2023/07/19 02:05:09;;;;;;;;;;;;;;;;;;1887097;28;7009;-63
2023/07/19 02:06:06;;;;;;;;;;;;;;;;;;1887463;28;7124;-63
2023/07/19 02:07:04;;;;;;;;;;;;;;;;;;1882540;28;7050;-63
2023/07/19 02:08:03;;;;;;;;;;;;;;;;;;1887200;28;7009;-64
2023/07/19 02:09:00;;;;;;;;;;;;;;;;;;1889921;28;7025;-64
2023/07/19 02:09:58;;;;;;;;;;;;;;;;;;1883275;28;7006;-64
2023/07/19 02:10:55;;;;;;;;;;;;;;;;;;1882024;28;8010;-63
2023/07/19 02:11:52;;;;;;;;;;;;;;;;;;1880720;28;7407;-64
2023/07/19 02:12:50;;;;;;;;;;;;;;;;;;1888891;28;7042;-63
2023/07/19 02:13:47;;;;;;;;;;;;;;;;;;1889737;28;8098;-64
2023/07/19 02:14:45;;;;;;;;;;;;;;;;;;1889517;28;9918;-63
2023/07/19 02:15:44;;;;;;;;;;;;;;;;;;1888657;28;7051;-63
2023/07/19 02:16:42;;;;;;;;;;;;;;;;;;1882555;28;7009;-62
2023/07/19 02:17:39;;;;;;;;;;;;;;;;;;1882354;28;8010;-63
2023/07/19 02:18:37;;;;;;;;;;;;;;;;;;1881650;28;8020;-62
2023/07/19 02:19:34;;;;;;;;;;;;;;;;;;1881562;28;7010;-63
2023/07/19 02:20:31;;;;;;;;;;;;;;;;;;1881843;28;7089;-63
2023/07/19 02:21:29;;;;;;;;;;;;;;;;;;1888598;28;7038;-63
2023/07/19 02:22:26;;;;;;;;;;;;;;;;;;1886433;28;7092;-63
2023/07/19 02:23:24;;;;;;;;;;;;;;;;;;1881952;28;7336;-63
2023/07/19 02:24:21;;;;;;;;;;;;;;;;;;1882262;28;7034;-63
2023/07/19 02:25:19;;;;;;;;;;;;;;;;;;1882899;28;7033;-63
2023/07/19 02:26:17;;;;;;;;;;;;;;;;;;1889314;28;7093;-63
2023/07/19 02:27:14;;;;;;;;;;;;;;;;;;1882474;28;7050;-63
2023/07/19 02:28:11;;;;;;;;;;;;;;;;;;1885515;28;8091;-64
2023/07/19 02:29:09;;;;;;;;;;;;;;;;;;1885067;28;9333;-64
2023/07/19 02:30:06;;;;;;;;;;;;;;;;;;1889261;28;7020;-63
2023/07/19 02:31:04;;;;;;;;;;;;;;;;;;1884609;28;7093;-63
2023/07/19 02:32:03;;;;;;;;;;;;;;;;;;1889350;28;8706;-63
2023/07/19 02:33:01;;;;;;;;;;;;;;;;;;1889131;28;8926;-63
2023/07/19 02:33:58;;;;;;;;;;;;;;;;;;1886679;28;7328;-63
2023/07/19 02:34:55;;;;;;;;;;;;;;;;;;1889059;28;7026;-63
2023/07/19 02:35:56;;;;;;;;;;;;;;;;;;1889188;28;7557;-63
2023/07/19 02:36:56;;;;;;;;;;;;;;;;;;1882383;28;7120;-64
2023/07/19 02:37:53;;;;;;;;;;;;;;;;;;1880835;28;7994;-63
2023/07/19 02:38:50;;;;;;;;;;;;;;;;;;1882152;28;7038;-63
2023/07/19 02:39:48;;;;;;;;;;;;;;;;;;1882106;28;7101;-64
2023/07/19 02:40:45;;;;;;;;;;;;;;;;;;1882437;28;7049;-62
2023/07/19 02:41:43;;;;;;;;;;;;;;;;;;1888944;28;7042;-63
2023/07/19 02:42:40;;;;;;;;;;;;;;;;;;1889828;28;7151;-63
2023/07/19 02:43:38;;;;;;;;;;;;;;;;;;1889529;28;7010;-63
2023/07/19 02:44:35;;;;;;;;;;;;;;;;;;1889660;28;8314;-63
2023/07/19 02:45:33;;;;;;;;;;;;;;;;;;1886260;28;7109;-63
2023/07/19 02:46:31;;;;;;;;;;;;;;;;;;1882767;28;7131;-63
2023/07/19 02:47:28;;;;;;;;;;;;;;;;;;1883764;28;7775;-63
2023/07/19 02:48:26;;;;;;;;;;;;;;;;;;1882035;28;7009;-63
2023/07/19 02:49:24;;;;;;;;;;;;;;;;;;1881360;28;7143;-63
2023/07/19 02:50:21;;;;;;;;;;;;;;;;;;1883084;28;7405;-63
2023/07/19 02:51:19;;;;;;;;;;;;;;;;;;1882323;28;7690;-63
2023/07/19 02:52:16;;;;;;;;;;;;;;;;;;1882413;28;7009;-62
2023/07/19 02:53:15;;;;;;;;;;;;;;;;;;1882157;28;8341;-63
2023/07/19 02:54:12;;;;;;;;;;;;;;;;;;1882253;28;7121;-64
2023/07/19 02:55:09;;;;;;;;;;;;;;;;;;1886622;28;7030;-63
2023/07/19 02:56:07;;;;;;;;;;;;;;;;;;1883053;28;8021;-63
2023/07/19 02:57:05;;;;;;;;;;;;;;;;;;1882534;28;7108;-63
2023/07/19 02:58:02;;;;;;;;;;;;;;;;;;1882716;28;8008;-63
2023/07/19 02:58:59;;;;;;;;;;;;;;;;;;1881070;28;7009;-64
2023/07/19 02:59:57;;;;;;;;;;;;;;;;;;1882383;28;7006;-63
2023/07/19 03:00:55;;;;;;;;;;;;;;;;;;1882549;28;8032;-63
2023/07/19 03:01:52;;;;;;;;;;;;;;;;;;1882255;28;8002;-63
2023/07/19 03:02:53;;;;;;;;;;;;;;;;;;1883075;28;7133;-63
2023/07/19 03:03:51;;;;;;;;;;;;;;;;;;1882662;28;7046;-63
2023/07/19 03:04:49;;;;;;;;;;;;;;;;;;1882433;28;7017;-63
2023/07/19 03:05:46;;;;;;;;;;;;;;;;;;1881929;28;7101;-63
2023/07/19 03:06:43;;;;;;;;;;;;;;;;;;1882171;28;7005;-62
2023/07/19 03:07:41;;;;;;;;;;;;;;;;;;1882250;28;7046;-63
2023/07/19 03:08:38;;;;;;;;;;;;;;;;;;1881779;28;7009;-63
2023/07/19 03:09:36;;;;;;;;;;;;;;;;;;1889606;28;8018;-63
2023/07/19 03:10:33;;;;;;;;;;;;;;;;;;1885705;28;7200;-64
2023/07/19 03:11:31;;;;;;;;;;;;;;;;;;1882477;28;8048;-63
2023/07/19 03:12:28;;;;;;;;;;;;;;;;;;1882349;28;7088;-63
2023/07/19 03:13:26;;;;;;;;;;;;;;;;;;1882243;28;8083;-63
2023/07/19 03:14:23;;;;;;;;;;;;;;;;;;1883173;28;7006;-62
2023/07/19 03:15:21;;;;;;;;;;;;;;;;;;1890715;28;7135;-63
2023/07/19 03:16:18;;;;;;;;;;;;;;;;;;1890470;28;7117;-63
2023/07/19 03:17:16;;;;;;;;;;;;;;;;;;1891425;28;8027;-63
2023/07/19 03:18:13;;;;;;;;;;;;;;;;;;1890998;28;7148;-63
2023/07/19 03:19:10;;;;;;;;;;;;;;;;;;1890751;28;7304;-63
2023/07/19 03:20:11;;;;;;;;;;;;;;;;;;1891135;28;7006;-63
2023/07/19 03:21:08;;;;;;;;;;;;;;;;;;1890902;28;7092;-63
2023/07/19 03:22:06;;;;;;;;;;;;;;;;;;1890734;28;8164;-63
2023/07/19 03:23:03;;;;;;;;;;;;;;;;;;1890671;28;8052;-63
2023/07/19 03:24:01;;;;;;;;;;;;;;;;;;1888699;28;7074;-63
2023/07/19 03:25:00;;;;;;;;;;;;;;;;;;1883722;28;8063;-63
2023/07/19 03:25:59;;;;;;;;;;;;;;;;;;1883646;28;7009;-63
2023/07/19 03:26:57;;;;;;;;;;;;;;;;;;1883524;28;8017;-63
2023/07/19 03:27:54;;;;;;;;;;;;;;;;;;1883714;28;8103;-63
2023/07/19 03:28:54;;;;;;;;;;;;;;;;;;1883030;28;7096;-63
2023/07/19 03:29:51;;;;;;;;;;;;;;;;;;1890141;28;7010;-63
2023/07/19 03:30:49;;;;;;;;;;;;;;;;;;1886722;28;7108;-63
2023/07/19 03:31:46;;;;;;;;;;;;;;;;;;1884183;28;7025;-63
2023/07/19 03:32:45;;;;;;;;;;;;;;;;;;1883298;28;7348;-62
2023/07/19 03:33:42;;;;;;;;;;;;;;;;;;1884155;28;7101;-62
2023/07/19 03:34:40;;;;;;;;;;;;;;;;;;1891080;28;7033;-63
2023/07/19 03:35:37;;;;;;;;;;;;;;;;;;1890723;28;8058;-63
2023/07/19 03:36:34;;;;;;;;;;;;;;;;;;1885277;28;7124;-63
2023/07/19 03:37:34;;;;;;;;;;;;;;;;;;1883407;28;8020;-63
2023/07/19 03:38:31;;;;;;;;;;;;;;;;;;1884016;28;8019;-63
2023/07/19 03:39:29;;;;;;;;;;;;;;;;;;1888410;28;7010;-63
2023/07/19 03:40:26;;;;;;;;;;;;;;;;;;1890693;28;8043;-63
2023/07/19 03:41:23;;;;;;;;;;;;;;;;;;1889141;28;8135;-63
2023/07/19 03:42:21;;;;;;;;;;;;;;;;;;1883929;28;7009;-62
2023/07/19 03:43:18;;;;;;;;;;;;;;;;;;1883545;28;7994;-63
2023/07/19 03:44:17;;;;;;;;;;;;;;;;;;1882445;28;8019;-63
2023/07/19 03:45:14;;;;;;;;;;;;;;;;;;1883692;28;7032;-63
2023/07/19 03:46:12;;;;;;;;;;;;;;;;;;1887079;28;8032;-63
2023/07/19 03:47:10;;;;;;;;;;;;;;;;;;1885317;28;8011;-63
2023/07/19 03:48:07;;;;;;;;;;;;;;;;;;1890788;28;8181;-63
2023/07/19 03:49:05;;;;;;;;;;;;;;;;;;1890369;28;7126;-64
2023/07/19 03:50:03;;;;;;;;;;;;;;;;;;1890153;28;7005;-63
2023/07/19 03:51:01;;;;;;;;;;;;;;;;;;1890792;28;7112;-63
2023/07/19 03:51:58;;;;;;;;;;;;;;;;;;1890409;28;8073;-63
2023/07/19 03:52:56;;;;;;;;;;;;;;;;;;1891014;28;8237;-64
2023/07/19 03:53:53;;;;;;;;;;;;;;;;;;1885219;28;8037;-63
2023/07/19 03:54:50;;;;;;;;;;;;;;;;;;1883127;28;7006;-64
2023/07/19 03:55:59;;;;;;;;;;;;;;;;;;1882754;28;7093;-64
2023/07/19 03:56:56;;;;;;;;;;;;;;;;;;1883317;28;7089;-63
2023/07/19 03:57:54;;;;;;;;;;;;;;;;;;1883146;28;7312;-63
2023/07/19 03:58:51;;;;;;;;;;;;;;;;;;1883481;28;7034;-63
2023/07/19 03:59:48;;;;;;;;;;;;;;;;;;1883335;28;7230;-63
2023/07/19 04:00:46;;;;;;;;;;;;;;;;;;1886303;28;7999;-63
2023/07/19 04:01:43;;;;;;;;;;;;;;;;;;1890790;28;7222;-63
2023/07/19 04:02:41;;;;;;;;;;;;;;;;;;1888739;28;8096;-63
2023/07/19 04:03:40;;;;;;;;;;;;;;;;;;1888604;28;7014;-63
2023/07/19 04:04:38;;;;;;;;;;;;;;;;;;1890192;28;7014;-63
2023/07/19 04:05:35;;;;;;;;;;;;;;;;;;1890215;28;7009;-63
2023/07/19 04:06:33;;;;;;;;;;;;;;;;;;1887998;28;7152;-64
2023/07/19 04:07:30;;;;;;;;;;;;;;;;;;1883590;28;7025;-63
2023/07/19 04:08:27;;;;;;;;;;;;;;;;;;1883550;28;7010;-63
2023/07/19 04:09:25;;;;;;;;;;;;;;;;;;1883120;28;7112;-63
2023/07/19 04:10:22;;;;;;;;;;;;;;;;;;1882713;28;7042;-63
2023/07/19 04:11:20;;;;;;;;;;;;;;;;;;1883546;28;7010;-63
2023/07/19 04:12:18;;;;;;;;;;;;;;;;;;1882812;28;7097;-63
2023/07/19 04:13:15;;;;;;;;;;;;;;;;;;1883116;28;7153;-63
2023/07/19 04:14:13;;;;;;;;;;;;;;;;;;1883554;28;7010;-63
2023/07/19 04:15:11;;;;;;;;;;;;;;;;;;1883363;28;7125;-63
2023/07/19 04:16:08;;;;;;;;;;;;;;;;;;1886453;28;7170;-63
2023/07/19 04:17:06;;;;;;;;;;;;;;;;;;1890403;28;7176;-64
2023/07/19 04:18:03;;;;;;;;;;;;;;;;;;1883556;28;7006;-63
2023/07/19 04:19:00;;;;;;;;;;;;;;;;;;1886890;28;7097;-63
2023/07/19 04:19:58;;;;;;;;;;;;;;;;;;1896765;28;7005;-62
2023/07/19 04:20:57;;;;;;;;;;;;;;;;;;1897338;28;8049;-63
2023/07/19 04:21:54;;;;;;;;;;;;;;;;;;1891274;28;7025;-63
2023/07/19 04:22:52;;;;;;;;;;;;;;;;;;1887019;28;7105;-63
2023/07/19 04:23:49;;;;;;;;;;;;;;;;;;1883117;28;7006;-63
2023/07/19 04:24:47;;;;;;;;;;;;;;;;;;1882408;28;7010;-63
2023/07/19 04:25:44;;;;;;;;;;;;;;;;;;1882952;28;7148;-63
2023/07/19 04:26:41;;;;;;;;;;;;;;;;;;1883048;28;7092;-63
2023/07/19 04:27:41;;;;;;;;;;;;;;;;;;1883609;28;7050;-63
2023/07/19 04:28:38;;;;;;;;;;;;;;;;;;1889038;28;7072;-63
2023/07/19 04:29:35;;;;;;;;;;;;;;;;;;1883397;28;7148;-64
2023/07/19 04:30:33;;;;;;;;;;;;;;;;;;1882421;28;7009;-63
2023/07/19 04:31:31;;;;;;;;;;;;;;;;;;1883100;28;7017;-63
2023/07/19 04:32:28;;;;;;;;;;;;;;;;;;1882843;28;7129;-63
2023/07/19 04:33:26;;;;;;;;;;;;;;;;;;1886151;28;7096;-63
2023/07/19 04:34:23;;;;;;;;;;;;;;;;;;1884317;28;7120;-64
2023/07/19 04:35:22;;;;;;;;;;;;;;;;;;1886365;28;8049;-63
2023/07/19 04:36:19;;;;;;;;;;;;;;;;;;1886463;28;7593;-63
2023/07/19 04:37:17;;;;;;;;;;;;;;;;;;1883186;28;7006;-63
2023/07/19 04:38:14;;;;;;;;;;;;;;;;;;1889426;28;7393;-63
2023/07/19 04:39:12;;;;;;;;;;;;;;;;;;1890047;28;8007;-63
2023/07/19 04:40:09;;;;;;;;;;;;;;;;;;1886145;28;7113;-63
2023/07/19 04:41:07;;;;;;;;;;;;;;;;;;1890119;28;7139;-63
2023/07/19 04:42:05;;;;;;;;;;;;;;;;;;1889829;28;8047;-63
2023/07/19 04:43:02;;;;;;;;;;;;;;;;;;1882337;28;7035;-64
2023/07/19 04:44:00;;;;;;;;;;;;;;;;;;1882995;28;7134;-63
2023/07/19 04:44:57;;;;;;;;;;;;;;;;;;1883045;28;7005;-63
2023/07/19 04:45:55;;;;;;;;;;;;;;;;;;1889054;28;7006;-63
2023/07/19 04:46:52;;;;;;;;;;;;;;;;;;1887432;28;7042;-63
2023/07/19 04:47:50;;;;;;;;;;;;;;;;;;1884052;28;7013;-63
2023/07/19 04:48:48;;;;;;;;;;;;;;;;;;1890292;28;7137;-63
2023/07/19 04:49:45;;;;;;;;;;;;;;;;;;1889818;28;7128;-63
2023/07/19 04:50:42;;;;;;;;;;;;;;;;;;1885543;28;8004;-63
2023/07/19 04:51:40;;;;;;;;;;;;;;;;;;1884261;28;7336;-63
2023/07/19 04:52:37;;;;;;;;;;;;;;;;;;1882774;28;7104;-63
2023/07/19 04:53:35;;;;;;;;;;;;;;;;;;1883192;28;7014;-63
2023/07/19 04:54:32;;;;;;;;;;;;;;;;;;1882652;28;7184;-64
2023/07/19 04:55:30;;;;;;;;;;;;;;;;;;1883053;28;7013;-63
2023/07/19 04:56:28;;;;;;;;;;;;;;;;;;1882823;28;7042;-64
2023/07/19 04:57:25;;;;;;;;;;;;;;;;;;1888024;28;7022;-63
2023/07/19 04:58:22;;;;;;;;;;;;;;;;;;1886704;28;7156;-63
2023/07/19 04:59:20;;;;;;;;;;;;;;;;;;1883045;28;7009;-63
2023/07/19 05:00:17;;;;;;;;;;;;;;;;;;1882933;28;7816;-63
2023/07/19 05:01:16;;;;;;;;;;;;;;;;;;1886175;28;7022;-63
2023/07/19 05:02:13;;;;;;;;;;;;;;;;;;1885452;28;7092;-63
2023/07/19 05:03:11;;;;;;;;;;;;;;;;;;1882856;28;7129;-63
2023/07/19 05:04:08;;;;;;;;;;;;;;;;;;1883243;28;7332;-63
2023/07/19 05:05:06;;;;;;;;;;;;;;;;;;1882921;28;8338;-63
2023/07/19 05:06:03;;;;;;;;;;;;;;;;;;1883447;28;8026;-63
2023/07/19 05:07:01;;;;;;;;;;;;;;;;;;1881581;28;7148;-62
2023/07/19 05:07:59;;;;;;;;;;;;;;;;;;1882969;28;7014;-64
2023/07/19 05:08:56;;;;;;;;;;;;;;;;;;1883068;28;8088;-63
2023/07/19 05:09:53;;;;;;;;;;;;;;;;;;1882991;28;7184;-63
2023/07/19 05:10:51;;;;;;;;;;;;;;;;;;1882702;28;7113;-63
2023/07/19 05:11:48;;;;;;;;;;;;;;;;;;1882682;28;7046;-63
2023/07/19 05:12:46;;;;;;;;;;;;;;;;;;1889484;28;7006;-63
2023/07/19 05:13:43;;;;;;;;;;;;;;;;;;1883198;28;7025;-63
2023/07/19 05:14:41;;;;;;;;;;;;;;;;;;1887810;28;7002;-64
2023/07/19 05:15:39;;;;;;;;;;;;;;;;;;1890364;28;8028;-64
2023/07/19 05:16:36;;;;;;;;;;;;;;;;;;1890220;28;8107;-63
2023/07/19 05:17:33;;;;;;;;;;;;;;;;;;1889769;28;7010;-63
2023/07/19 05:18:31;;;;;;;;;;;;;;;;;;1890145;28;7038;-63
2023/07/19 05:19:28;;;;;;;;;;;;;;;;;;1884290;28;7005;-64
2023/07/19 05:20:26;;;;;;;;;;;;;;;;;;1883457;28;7030;-63
2023/07/19 05:21:23;;;;;;;;;;;;;;;;;;1883980;28;7255;-64
2023/07/19 05:22:21;;;;;;;;;;;;;;;;;;1883426;28;8024;-63
2023/07/19 05:23:18;;;;;;;;;;;;;;;;;;1882785;28;8017;-63
2023/07/19 05:24:15;;;;;;;;;;;;;;;;;;1882900;28;7108;-64
2023/07/19 05:25:13;;;;;;;;;;;;;;;;;;1882231;28;7102;-63
2023/07/19 05:26:10;;;;;;;;;;;;;;;;;;1882797;28;7412;-64
2023/07/19 05:27:08;;;;;;;;;;;;;;;;;;1882539;28;7006;-63
2023/07/19 05:28:06;;;;;;;;;;;;;;;;;;1882362;28;8003;-63
2023/07/19 05:29:03;;;;;;;;;;;;;;;;;;1887978;28;7001;-64
2023/07/19 05:30:01;;;;;;;;;;;;;;;;;;1887011;28;7315;-63
2023/07/19 05:31:02;;;;;;;;;;;;;;;;;;1883043;28;7130;-64
2023/07/19 05:32:00;;;;;;;;;;;;;;;;;;1882811;28;8033;-63
2023/07/19 05:32:57;;;;;;;;;;;;;;;;;;1882773;28;7021;-63
2023/07/19 05:33:55;;;;;;;;;;;;;;;;;;1884595;28;7046;-63
2023/07/19 05:34:52;;;;;;;;;;;;;;;;;;1884757;28;7959;-64
2023/07/19 05:35:49;;;;;;;;;;;;;;;;;;1882852;28;7225;-63
2023/07/19 05:36:47;;;;;;;;;;;;;;;;;;1882763;28;7006;-63
2023/07/19 05:37:44;;;;;;;;;;;;;;;;;;1883271;28;7124;-63
2023/07/19 05:38:42;;;;;;;;;;;;;;;;;;1881636;28;7010;-64
2023/07/19 05:39:39;;;;;;;;;;;;;;;;;;1882107;28;7168;-64
2023/07/19 05:40:37;;;;;;;;;;;;;;;;;;1882233;28;7088;-63
2023/07/19 05:41:34;;;;;;;;;;;;;;;;;;1882378;28;7507;-63
2023/07/19 05:42:31;;;;;;;;;;;;;;;;;;1882830;28;7026;-63
2023/07/19 05:43:29;;;;;;;;;;;;;;;;;;1883347;28;7005;-63
2023/07/19 05:44:27;;;;;;;;;;;;;;;;;;1882564;28;7022;-63
2023/07/19 05:45:24;;;;;;;;;;;;;;;;;;1882570;28;7113;-63
2023/07/19 05:46:23;;;;;;;;;;;;;;;;;;1882429;28;8031;-63
2023/07/19 05:47:21;;;;;;;;;;;;;;;;;;1886200;28;7108;-63
2023/07/19 05:48:18;;;;;;;;;;;;;;;;;;1889750;28;7013;-63
2023/07/19 05:49:16;;;;;;;;;;;;;;;;;;1890242;28;7049;-64
2023/07/19 05:50:13;;;;;;;;;;;;;;;;;;1884906;28;8051;-64
2023/07/19 05:51:12;;;;;;;;;;;;;;;;;;1882133;28;7010;-63
2023/07/19 05:52:10;;;;;;;;;;;;;;;;;;1889900;28;7476;-63
2023/07/19 05:53:07;;;;;;;;;;;;;;;;;;1889604;28;7121;-63
2023/07/19 05:54:05;;;;;;;;;;;;;;;;;;1889933;28;7093;-64
2023/07/19 05:55:02;;;;;;;;;;;;;;;;;;1889862;28;8039;-63
2023/07/19 05:56:03;;;;;;;;;;;;;;;;;;1884027;28;7312;-63
2023/07/19 05:57:00;;;;;;;;;;;;;;;;;;1882453;28;7030;-63
2023/07/19 05:57:57;;;;;;;;;;;;;;;;;;1882870;28;7292;-64
2023/07/19 05:58:56;;;;;;;;;;;;;;;;;;1882401;28;7089;-63
2023/07/19 05:59:53;;;;;;;;;;;;;;;;;;1882504;28;7120;-63
2023/07/19 06:00:59;;;;;;;;;;;;;;;;;;1883053;28;7034;-63
2023/07/19 06:01:57;;;;;;;;;;;;;;;;;;1882564;28;8330;-63
2023/07/19 06:02:55;;;;;;;;;;;;;;;;;;1889520;28;8015;-64
2023/07/19 06:03:53;;;;;;;;;;;;;;;;;;1887703;28;7005;-63
2023/07/19 06:04:51;;;;;;;;;;;;;;;;;;1890266;28;7196;-63
2023/07/19 06:05:48;;;;;;;;;;;;;;;;;;1890613;28;7005;-64
2023/07/19 06:06:46;;;;;;;;;;;;;;;;;;1884474;28;7147;-64
2023/07/19 06:07:45;;;;;;;;;;;;;;;;;;1882178;28;8030;-64
2023/07/19 06:08:42;;;;;;;;;;;;;;;;;;1886732;28;7269;-63
2023/07/19 06:09:39;;;;;;;;;;;;;;;;;;1889381;28;7137;-63
2023/07/19 06:10:37;;;;;;;;;;;;;;;;;;1889922;28;7096;-63
2023/07/19 06:11:35;;;;;;;;;;;;;;;;;;1889642;28;7445;-63
2023/07/19 06:12:33;;;;;;;;;;;;;;;;;;1888648;28;7029;-63
2023/07/19 06:13:30;;;;;;;;;;;;;;;;;;1882252;28;7010;-63
2023/07/19 06:14:27;;;;;;;;;;;;;;;;;;1885799;28;7097;-63
2023/07/19 06:15:26;;;;;;;;;;;;;;;;;;1889531;28;7131;-64
2023/07/19 06:16:23;;;;;;;;;;;;;;;;;;1889731;28;8016;-63
2023/07/19 06:17:21;;;;;;;;;;;;;;;;;;1889566;28;8105;-63
2023/07/19 06:18:19;;;;;;;;;;;;;;;;;;1889873;28;7090;-64
2023/07/19 06:19:18;;;;;;;;;;;;;;;;;;1890081;28;7010;-63
2023/07/19 06:20:16;;;;;;;;;;;;;;;;;;1890153;28;7116;-63
2023/07/19 06:21:13;;;;;;;;;;;;;;;;;;1887595;28;7025;-64
2023/07/19 06:22:10;;;;;;;;;;;;;;;;;;1882070;28;7113;-64
2023/07/19 06:23:08;;;;;;;;;;;;;;;;;;1882345;28;7001;-63
2023/07/19 06:24:06;;;;;;;;;;;;;;;;;;1882200;28;7096;-64
2023/07/19 06:25:03;;;;;;;;;;;;;;;;;;1882312;28;8095;-64
2023/07/19 06:26:01;;;;;;;;;;;;;;;;;;1882653;28;7002;-64
2023/07/19 06:27:02;;;;;;;;;;;;;;;;;;1883034;28;8053;-63
2023/07/19 06:28:00;;;;;;;;;;;;;;;;;;1882293;28;8037;-63
2023/07/19 06:28:57;;;;;;;;;;;;;;;;;;1882608;28;8031;-63
2023/07/19 06:29:55;;;;;;;;;;;;;;;;;;1887148;28;7025;-63
2023/07/19 06:30:52;;;;;;;;;;;;;;;;;;1889040;28;7006;-63
2023/07/19 06:31:50;;;;;;;;;;;;;;;;;;1889475;28;7093;-64
2023/07/19 06:32:47;;;;;;;;;;;;;;;;;;1889682;28;7046;-63
2023/07/19 06:33:45;;;;;;;;;;;;;;;;;;1888847;28;7005;-64
2023/07/19 06:34:43;;;;;;;;;;;;;;;;;;1882305;28;9065;-64
2023/07/19 06:35:40;;;;;;;;;;;;;;;;;;1883661;28;7005;-66
2023/07/19 06:36:37;;;;;;;;;;;;;;;;;;1883911;28;7329;-63
2023/07/19 06:37:37;;;;;;;;;;;;;;;;;;1882367;28;7005;-63
2023/07/19 06:38:38;;;;;;;;;;;;;;;;;;1882388;28;7073;-64
2023/07/19 06:39:35;;;;;;;;;;;;;;;;;;1882368;28;7038;-64
2023/07/19 06:40:32;;;;;;;;;;;;;;;;;;1882604;28;7123;-63
2023/07/19 06:41:30;;;;;;;;;;;;;;;;;;1882701;28;7785;-64